sensor_id;sensor_type;location;lat;lon;timestamp;temperature;humidity
25320;DHT22;13256;49.012;8.610;2023-06-14T00:00:02;13.50;99.90
25320;DHT22;13256;49.012;8.610;2023-06-14T00:02:58;13.40;99.90
25320;DHT22;13256;49.012;8.610;2023-06-14T00:05:31;13.40;99.90
25320;DHT22;13256;49.012;8.610;2023-06-14T00:08:10;13.40;99.90
25320;DHT22;13256;49.012;8.610;2023-06-14T00:10:40;13.40;99.90
25320;DHT22;13256;49.012;8.610;2023-06-14T00:13:12;13.30;99.90
25320;DHT22;13256;49.012;8.610;2023-06-14T00:22:32;13.20;99.90
25320;DHT22;13256;49.012;8.610;2023-06-14T00:25:00;13.20;99.90
25320;DHT22;13256;49.012;8.610;2023-06-14T00:30:47;13.10;99.90
25320;DHT22;13256;49.012;8.610;2023-06-14T00:33:17;13.10;99.90
25320;DHT22;13256;49.012;8.610;2023-06-14T00:39:45;13.10;99.90
25320;DHT22;13256;49.012;8.610;2023-06-14T00:42:32;13.00;99.90
25320;DHT22;13256;49.012;8.610;2023-06-14T00:45:54;13.10;99.90
25320;DHT22;13256;49.012;8.610;2023-06-14T00:51:12;13.00;99.90
25320;DHT22;13256;49.012;8.610;2023-06-14T00:57:30;13.00;99.90
25320;DHT22;13256;49.012;8.610;2023-06-14T01:03:48;13.00;99.90
25320;DHT22;13256;49.012;8.610;2023-06-14T01:16:14;13.00;99.90
25320;DHT22;13256;49.012;8.610;2023-06-14T01:18:44;13.00;99.90
25320;DHT22;13256;49.012;8.610;2023-06-14T01:31:08;12.70;99.90
25320;DHT22;13256;49.012;8.610;2023-06-14T01:34:16;12.60;99.90
25320;DHT22;13256;49.012;8.610;2023-06-14T01:37:15;12.60;99.90
25320;DHT22;13256;49.012;8.610;2023-06-14T01:39:44;12.60;99.90
25320;DHT22;13256;49.012;8.610;2023-06-14T01:48:47;12.40;99.90
25320;DHT22;13256;49.012;8.610;2023-06-14T01:51:15;12.40;99.90
25320;DHT22;13256;49.012;8.610;2023-06-14T01:54:12;12.30;99.90
25320;DHT22;13256;49.012;8.610;2023-06-14T01:59:46;12.20;99.90
25320;DHT22;13256;49.012;8.610;2023-06-14T02:02:43;12.20;99.90
25320;DHT22;13256;49.012;8.610;2023-06-14T02:05:11;12.20;99.90
25320;DHT22;13256;49.012;8.610;2023-06-14T02:21:20;12.00;99.90
25320;DHT22;13256;49.012;8.610;2023-06-14T02:23:47;12.00;99.90
25320;DHT22;13256;49.012;8.610;2023-06-14T02:33:29;11.90;99.90
25320;DHT22;13256;49.012;8.610;2023-06-14T02:35:57;11.90;99.90
25320;DHT22;13256;49.012;8.610;2023-06-14T02:38:52;11.80;99.90
25320;DHT22;13256;49.012;8.610;2023-06-14T02:41:23;11.80;99.90
25320;DHT22;13256;49.012;8.610;2023-06-14T02:43:57;11.80;99.90
25320;DHT22;13256;49.012;8.610;2023-06-14T02:46:26;11.80;99.90
25320;DHT22;13256;49.012;8.610;2023-06-14T02:51:48;11.80;99.90
25320;DHT22;13256;49.012;8.610;2023-06-14T03:07:05;11.60;99.90
25320;DHT22;13256;49.012;8.610;2023-06-14T03:34:51;11.70;99.90
25320;DHT22;13256;49.012;8.610;2023-06-14T03:37:24;11.80;99.90
25320;DHT22;13256;49.012;8.610;2023-06-14T03:43:02;11.90;99.90
25320;DHT22;13256;49.012;8.610;2023-06-14T03:45:31;11.90;99.90
25320;DHT22;13256;49.012;8.610;2023-06-14T03:48:00;11.90;99.90
25320;DHT22;13256;49.012;8.610;2023-06-14T03:50:30;11.90;99.90
25320;DHT22;13256;49.012;8.610;2023-06-14T03:53:04;11.90;99.90
25320;DHT22;13256;49.012;8.610;2023-06-14T03:55:33;11.90;99.90
25320;DHT22;13256;49.012;8.610;2023-06-14T04:11:22;12.20;99.90
25320;DHT22;13256;49.012;8.610;2023-06-14T04:16:48;12.10;99.90
25320;DHT22;13256;49.012;8.610;2023-06-14T04:23:14;11.90;99.90
25320;DHT22;13256;49.012;8.610;2023-06-14T04:25:43;11.90;99.90
25320;DHT22;13256;49.012;8.610;2023-06-14T04:28:14;12.00;99.90
25320;DHT22;13256;49.012;8.610;2023-06-14T04:30:47;12.00;99.90
25320;DHT22;13256;49.012;8.610;2023-06-14T04:36:19;12.00;99.90
25320;DHT22;13256;49.012;8.610;2023-06-14T04:38:50;12.00;99.90
25320;DHT22;13256;49.012;8.610;2023-06-14T04:44:46;12.00;99.90
25320;DHT22;13256;49.012;8.610;2023-06-14T04:50:12;12.10;99.90
25320;DHT22;13256;49.012;8.610;2023-06-14T04:52:43;12.10;99.90
25320;DHT22;13256;49.012;8.610;2023-06-14T04:55:11;12.20;99.90
25320;DHT22;13256;49.012;8.610;2023-06-14T05:04:53;12.70;99.90
25320;DHT22;13256;49.012;8.610;2023-06-14T05:10:41;13.00;99.90
25320;DHT22;13256;49.012;8.610;2023-06-14T05:15:59;13.20;99.90
25320;DHT22;13256;49.012;8.610;2023-06-14T05:18:26;13.40;99.90
25320;DHT22;13256;49.012;8.610;2023-06-14T05:20:53;13.50;99.90
25320;DHT22;13256;49.012;8.610;2023-06-14T05:23:19;13.60;99.90
25320;DHT22;13256;49.012;8.610;2023-06-14T05:26:13;13.70;99.90
25320;DHT22;13256;49.012;8.610;2023-06-14T05:28:56;13.80;99.90
25320;DHT22;13256;49.012;8.610;2023-06-14T05:31:27;13.90;99.90
25320;DHT22;13256;49.012;8.610;2023-06-14T05:37:10;14.10;99.90
25320;DHT22;13256;49.012;8.610;2023-06-14T05:42:11;14.40;99.90
25320;DHT22;13256;49.012;8.610;2023-06-14T05:47:30;14.70;99.90
25320;DHT22;13256;49.012;8.610;2023-06-14T05:49:57;14.80;99.90
25320;DHT22;13256;49.012;8.610;2023-06-14T05:52:24;14.90;99.90
25320;DHT22;13256;49.012;8.610;2023-06-14T05:54:55;15.10;99.90
25320;DHT22;13256;49.012;8.610;2023-06-14T05:57:22;15.30;99.90
25320;DHT22;13256;49.012;8.610;2023-06-14T05:59:49;15.40;99.90
25320;DHT22;13256;49.012;8.610;2023-06-14T06:02:17;15.50;99.90
25320;DHT22;13256;49.012;8.610;2023-06-14T06:04:46;15.70;99.90
25320;DHT22;13256;49.012;8.610;2023-06-14T06:07:14;15.80;99.90
25320;DHT22;13256;49.012;8.610;2023-06-14T06:09:44;15.90;99.90
25320;DHT22;13256;49.012;8.610;2023-06-14T06:12:11;16.10;99.90
25320;DHT22;13256;49.012;8.610;2023-06-14T06:14:42;16.20;99.90
25320;DHT22;13256;49.012;8.610;2023-06-14T06:17:09;16.30;99.90
25320;DHT22;13256;49.012;8.610;2023-06-14T06:19:39;16.40;99.90
25320;DHT22;13256;49.012;8.610;2023-06-14T06:22:06;16.60;99.90
25320;DHT22;13256;49.012;8.610;2023-06-14T06:24:35;16.70;99.90
25320;DHT22;13256;49.012;8.610;2023-06-14T06:27:03;16.80;99.90
25320;DHT22;13256;49.012;8.610;2023-06-14T06:29:34;16.90;99.90
25320;DHT22;13256;49.012;8.610;2023-06-14T06:32:05;17.00;99.90
25320;DHT22;13256;49.012;8.610;2023-06-14T06:34:36;17.10;99.90
25320;DHT22;13256;49.012;8.610;2023-06-14T06:37:04;17.10;99.90
25320;DHT22;13256;49.012;8.610;2023-06-14T06:39:30;17.20;99.90
25320;DHT22;13256;49.012;8.610;2023-06-14T06:41:58;17.20;99.90
25320;DHT22;13256;49.012;8.610;2023-06-14T06:44:36;17.30;99.90
25320;DHT22;13256;49.012;8.610;2023-06-14T06:47:07;17.40;99.90
25320;DHT22;13256;49.012;8.610;2023-06-14T06:49:33;17.50;99.90
25320;DHT22;13256;49.012;8.610;2023-06-14T06:52:05;17.50;99.90
25320;DHT22;13256;49.012;8.610;2023-06-14T06:54:34;17.70;99.90
25320;DHT22;13256;49.012;8.610;2023-06-14T06:57:07;17.80;99.90
25320;DHT22;13256;49.012;8.610;2023-06-14T06:59:37;17.90;99.90
25320;DHT22;13256;49.012;8.610;2023-06-14T07:02:13;18.00;99.90
25320;DHT22;13256;49.012;8.610;2023-06-14T07:04:42;18.10;99.90
25320;DHT22;13256;49.012;8.610;2023-06-14T07:07:14;18.20;99.90
25320;DHT22;13256;49.012;8.610;2023-06-14T07:09:47;18.30;99.90
25320;DHT22;13256;49.012;8.610;2023-06-14T07:12:14;18.40;99.90
25320;DHT22;13256;49.012;8.610;2023-06-14T07:14:47;18.50;99.90
25320;DHT22;13256;49.012;8.610;2023-06-14T07:17:13;18.60;99.90
25320;DHT22;13256;49.012;8.610;2023-06-14T07:19:40;18.70;99.90
25320;DHT22;13256;49.012;8.610;2023-06-14T07:22:09;18.80;99.90
25320;DHT22;13256;49.012;8.610;2023-06-14T07:24:36;19.00;99.90
25320;DHT22;13256;49.012;8.610;2023-06-14T07:27:05;19.10;99.90
25320;DHT22;13256;49.012;8.610;2023-06-14T07:29:33;19.30;99.90
25320;DHT22;13256;49.012;8.610;2023-06-14T07:32:03;19.40;99.90
25320;DHT22;13256;49.012;8.610;2023-06-14T07:34:35;19.50;99.90
25320;DHT22;13256;49.012;8.610;2023-06-14T07:37:02;19.50;99.90
25320;DHT22;13256;49.012;8.610;2023-06-14T07:39:34;19.70;99.90
25320;DHT22;13256;49.012;8.610;2023-06-14T07:42:06;19.80;99.90
25320;DHT22;13256;49.012;8.610;2023-06-14T07:44:37;19.90;99.90
25320;DHT22;13256;49.012;8.610;2023-06-14T07:47:12;20.00;99.90
25320;DHT22;13256;49.012;8.610;2023-06-14T07:49:39;20.20;99.90
25320;DHT22;13256;49.012;8.610;2023-06-14T07:52:06;20.30;99.90
25320;DHT22;13256;49.012;8.610;2023-06-14T07:54:33;20.40;99.90
25320;DHT22;13256;49.012;8.610;2023-06-14T07:57:00;20.50;99.80
25320;DHT22;13256;49.012;8.610;2023-06-14T07:59:30;20.50;99.90
25320;DHT22;13256;49.012;8.610;2023-06-14T08:02:00;20.70;99.30
25320;DHT22;13256;49.012;8.610;2023-06-14T08:04:29;20.90;98.60
25320;DHT22;13256;49.012;8.610;2023-06-14T08:07:00;21.00;99.00
25320;DHT22;13256;49.012;8.610;2023-06-14T08:09:30;21.10;98.10
25320;DHT22;13256;49.012;8.610;2023-06-14T08:12:34;21.30;97.60
25320;DHT22;13256;49.012;8.610;2023-06-14T08:15:01;21.50;96.60
25320;DHT22;13256;49.012;8.610;2023-06-14T08:17:37;21.60;96.50
25320;DHT22;13256;49.012;8.610;2023-06-14T08:20:06;21.70;95.90
25320;DHT22;13256;49.012;8.610;2023-06-14T08:22:36;21.70;94.90
25320;DHT22;13256;49.012;8.610;2023-06-14T08:25:06;21.80;95.40
25320;DHT22;13256;49.012;8.610;2023-06-14T08:27:33;21.90;95.40
25320;DHT22;13256;49.012;8.610;2023-06-14T08:30:03;22.10;94.80
25320;DHT22;13256;49.012;8.610;2023-06-14T08:32:33;22.20;94.90
25320;DHT22;13256;49.012;8.610;2023-06-14T08:35:02;22.40;94.00
25320;DHT22;13256;49.012;8.610;2023-06-14T08:37:41;22.60;93.60
25320;DHT22;13256;49.012;8.610;2023-06-14T08:40:22;22.90;93.00
25320;DHT22;13256;49.012;8.610;2023-06-14T08:42:54;23.00;92.80
25320;DHT22;13256;49.012;8.610;2023-06-14T08:45:24;23.10;92.10
25320;DHT22;13256;49.012;8.610;2023-06-14T08:47:54;23.30;92.20
25320;DHT22;13256;49.012;8.610;2023-06-14T08:50:27;23.40;90.80
25320;DHT22;13256;49.012;8.610;2023-06-14T08:52:59;23.40;92.50
25320;DHT22;13256;49.012;8.610;2023-06-14T08:55:31;23.60;91.20
25320;DHT22;13256;49.012;8.610;2023-06-14T09:01:05;23.60;91.30
25320;DHT22;13256;49.012;8.610;2023-06-14T09:03:43;23.90;90.80
25320;DHT22;13256;49.012;8.610;2023-06-14T09:06:28;23.90;89.90
25320;DHT22;13256;49.012;8.610;2023-06-14T09:08:59;24.10;89.20
25320;DHT22;13256;49.012;8.610;2023-06-14T09:11:30;24.30;89.70
25320;DHT22;13256;49.012;8.610;2023-06-14T09:14:25;24.50;88.20
25320;DHT22;13256;49.012;8.610;2023-06-14T09:16:54;24.60;84.90
25320;DHT22;13256;49.012;8.610;2023-06-14T09:22:16;24.80;85.10
25320;DHT22;13256;49.012;8.610;2023-06-14T09:24:43;24.80;83.10
25320;DHT22;13256;49.012;8.610;2023-06-14T09:27:22;24.80;86.80
25320;DHT22;13256;49.012;8.610;2023-06-14T09:29:50;25.10;84.20
25320;DHT22;13256;49.012;8.610;2023-06-14T09:35:37;25.60;80.20
25320;DHT22;13256;49.012;8.610;2023-06-14T09:38:06;25.60;78.60
25320;DHT22;13256;49.012;8.610;2023-06-14T09:40:35;25.70;80.00
25320;DHT22;13256;49.012;8.610;2023-06-14T09:43:07;26.00;78.70
25320;DHT22;13256;49.012;8.610;2023-06-14T09:45:41;26.20;76.60
25320;DHT22;13256;49.012;8.610;2023-06-14T09:48:12;26.00;79.00
25320;DHT22;13256;49.012;8.610;2023-06-14T09:50:46;26.10;78.80
25320;DHT22;13256;49.012;8.610;2023-06-14T09:53:21;26.40;75.70
25320;DHT22;13256;49.012;8.610;2023-06-14T09:55:52;26.60;75.10
25320;DHT22;13256;49.012;8.610;2023-06-14T09:58:26;26.80;72.40
25320;DHT22;13256;49.012;8.610;2023-06-14T10:00:59;27.00;70.40
25320;DHT22;13256;49.012;8.610;2023-06-14T10:03:31;27.10;69.30
25320;DHT22;13256;49.012;8.610;2023-06-14T10:06:25;27.20;70.90
25320;DHT22;13256;49.012;8.610;2023-06-14T10:09:00;27.40;70.50
25320;DHT22;13256;49.012;8.610;2023-06-14T10:11:31;27.70;68.70
25320;DHT22;13256;49.012;8.610;2023-06-14T10:14:05;28.00;66.90
25320;DHT22;13256;49.012;8.610;2023-06-14T10:16:42;28.10;66.00
25320;DHT22;13256;49.012;8.610;2023-06-14T10:19:34;28.00;61.40
25320;DHT22;13256;49.012;8.610;2023-06-14T10:25:42;28.00;63.60
25320;DHT22;13256;49.012;8.610;2023-06-14T10:28:20;27.90;62.70
25320;DHT22;13256;49.012;8.610;2023-06-14T10:31:16;28.00;64.00
25320;DHT22;13256;49.012;8.610;2023-06-14T10:33:57;28.10;61.70
25320;DHT22;13256;49.012;8.610;2023-06-14T10:36:35;28.00;62.40
25320;DHT22;13256;49.012;8.610;2023-06-14T10:39:14;28.20;63.40
25320;DHT22;13256;49.012;8.610;2023-06-14T10:41:55;28.20;60.60
25320;DHT22;13256;49.012;8.610;2023-06-14T10:46:58;28.00;60.20
25320;DHT22;13256;49.012;8.610;2023-06-14T10:55:13;28.50;60.50
25320;DHT22;13256;49.012;8.610;2023-06-14T10:57:54;28.90;58.30
25320;DHT22;13256;49.012;8.610;2023-06-14T11:00:29;28.80;58.40
25320;DHT22;13256;49.012;8.610;2023-06-14T11:06:12;29.20;56.60
25320;DHT22;13256;49.012;8.610;2023-06-14T11:11:51;29.90;59.20
25320;DHT22;13256;49.012;8.610;2023-06-14T11:14:24;30.10;57.80
25320;DHT22;13256;49.012;8.610;2023-06-14T11:17:01;30.30;56.20
25320;DHT22;13256;49.012;8.610;2023-06-14T11:19:29;30.10;54.30
25320;DHT22;13256;49.012;8.610;2023-06-14T11:22:15;29.50;55.30
25320;DHT22;13256;49.012;8.610;2023-06-14T11:24:44;29.00;55.50
25320;DHT22;13256;49.012;8.610;2023-06-14T11:27:15;28.90;56.40
25320;DHT22;13256;49.012;8.610;2023-06-14T11:29:48;29.10;55.90
25320;DHT22;13256;49.012;8.610;2023-06-14T11:32:22;29.40;56.30
25320;DHT22;13256;49.012;8.610;2023-06-14T11:34:49;29.70;55.20
25320;DHT22;13256;49.012;8.610;2023-06-14T11:37:17;30.10;56.30
25320;DHT22;13256;49.012;8.610;2023-06-14T11:39:45;30.60;54.00
25320;DHT22;13256;49.012;8.610;2023-06-14T11:42:16;30.70;52.70
25320;DHT22;13256;49.012;8.610;2023-06-14T11:44:54;30.80;53.80
25320;DHT22;13256;49.012;8.610;2023-06-14T11:47:37;30.80;53.80
25320;DHT22;13256;49.012;8.610;2023-06-14T11:50:37;30.80;53.70
25320;DHT22;13256;49.012;8.610;2023-06-14T11:53:04;31.10;53.00
25320;DHT22;13256;49.012;8.610;2023-06-14T11:56:05;31.20;52.50
25320;DHT22;13256;49.012;8.610;2023-06-14T11:58:33;31.20;52.80
25320;DHT22;13256;49.012;8.610;2023-06-14T12:01:03;31.10;53.10
25320;DHT22;13256;49.012;8.610;2023-06-14T12:03:33;31.30;54.50
25320;DHT22;13256;49.012;8.610;2023-06-14T12:09:24;30.60;50.70
25320;DHT22;13256;49.012;8.610;2023-06-14T12:12:00;30.40;52.10
25320;DHT22;13256;49.012;8.610;2023-06-14T12:14:37;30.10;50.80
25320;DHT22;13256;49.012;8.610;2023-06-14T12:17:17;30.20;51.90
25320;DHT22;13256;49.012;8.610;2023-06-14T12:19:49;30.40;52.10
25320;DHT22;13256;49.012;8.610;2023-06-14T12:22:17;30.50;51.10
25320;DHT22;13256;49.012;8.610;2023-06-14T12:24:47;30.50;52.10
25320;DHT22;13256;49.012;8.610;2023-06-14T12:27:16;30.60;52.80
25320;DHT22;13256;49.012;8.610;2023-06-14T12:30:16;30.50;51.60
25320;DHT22;13256;49.012;8.610;2023-06-14T12:32:46;30.90;54.00
25320;DHT22;13256;49.012;8.610;2023-06-14T12:35:13;31.40;50.60
25320;DHT22;13256;49.012;8.610;2023-06-14T12:37:48;31.60;50.10
25320;DHT22;13256;49.012;8.610;2023-06-14T12:40:18;31.60;50.30
25320;DHT22;13256;49.012;8.610;2023-06-14T12:42:45;31.30;50.00
25320;DHT22;13256;49.012;8.610;2023-06-14T12:45:15;31.30;50.60
25320;DHT22;13256;49.012;8.610;2023-06-14T12:47:43;31.30;48.90
25320;DHT22;13256;49.012;8.610;2023-06-14T12:50:15;31.50;49.90
25320;DHT22;13256;49.012;8.610;2023-06-14T12:52:44;31.90;48.90
25320;DHT22;13256;49.012;8.610;2023-06-14T12:55:12;32.30;49.30
25320;DHT22;13256;49.012;8.610;2023-06-14T12:57:40;32.30;48.20
25320;DHT22;13256;49.012;8.610;2023-06-14T13:00:08;31.70;49.30
25320;DHT22;13256;49.012;8.610;2023-06-14T13:02:37;31.40;49.90
25320;DHT22;13256;49.012;8.610;2023-06-14T13:05:06;31.10;49.10
25320;DHT22;13256;49.012;8.610;2023-06-14T13:07:41;31.20;50.50
25320;DHT22;13256;49.012;8.610;2023-06-14T13:10:08;31.50;49.40
25320;DHT22;13256;49.012;8.610;2023-06-14T13:12:35;31.70;48.20
25320;DHT22;13256;49.012;8.610;2023-06-14T13:15:07;31.90;46.80
25320;DHT22;13256;49.012;8.610;2023-06-14T13:17:36;31.90;47.30
25320;DHT22;13256;49.012;8.610;2023-06-14T13:20:06;31.90;46.80
25320;DHT22;13256;49.012;8.610;2023-06-14T13:22:35;31.70;47.80
25320;DHT22;13256;49.012;8.610;2023-06-14T13:25:08;31.60;46.80
25320;DHT22;13256;49.012;8.610;2023-06-14T13:27:38;31.40;47.60
25320;DHT22;13256;49.012;8.610;2023-06-14T13:38:39;31.60;48.30
25320;DHT22;13256;49.012;8.610;2023-06-14T13:41:11;32.10;46.30
25320;DHT22;13256;49.012;8.610;2023-06-14T13:43:42;31.90;48.10
25320;DHT22;13256;49.012;8.610;2023-06-14T13:46:09;31.60;46.70
25320;DHT22;13256;49.012;8.610;2023-06-14T13:48:36;31.80;47.90
25320;DHT22;13256;49.012;8.610;2023-06-14T13:51:08;32.00;47.20
25320;DHT22;13256;49.012;8.610;2023-06-14T13:53:47;32.30;44.60
25320;DHT22;13256;49.012;8.610;2023-06-14T13:56:21;31.90;46.10
25320;DHT22;13256;49.012;8.610;2023-06-14T13:58:50;31.70;46.00
25320;DHT22;13256;49.012;8.610;2023-06-14T14:01:25;31.30;48.00
25320;DHT22;13256;49.012;8.610;2023-06-14T14:03:53;31.30;47.20
25320;DHT22;13256;49.012;8.610;2023-06-14T14:06:24;31.40;46.60
25320;DHT22;13256;49.012;8.610;2023-06-14T14:08:57;31.50;47.10
25320;DHT22;13256;49.012;8.610;2023-06-14T14:11:24;31.60;46.80
25320;DHT22;13256;49.012;8.610;2023-06-14T14:14:18;31.40;45.70
25320;DHT22;13256;49.012;8.610;2023-06-14T14:16:47;31.60;47.70
25320;DHT22;13256;49.012;8.610;2023-06-14T14:19:18;31.80;47.10
25320;DHT22;13256;49.012;8.610;2023-06-14T14:21:48;31.40;45.40
25320;DHT22;13256;49.012;8.610;2023-06-14T14:24:19;31.80;46.90
25320;DHT22;13256;49.012;8.610;2023-06-14T14:26:48;32.00;45.70
25320;DHT22;13256;49.012;8.610;2023-06-14T14:29:16;32.20;47.20
25320;DHT22;13256;49.012;8.610;2023-06-14T14:31:43;32.30;45.50
25320;DHT22;13256;49.012;8.610;2023-06-14T14:34:12;32.30;45.00
25320;DHT22;13256;49.012;8.610;2023-06-14T14:36:47;32.50;45.30
25320;DHT22;13256;49.012;8.610;2023-06-14T14:39:17;32.40;43.30
25320;DHT22;13256;49.012;8.610;2023-06-14T14:41:44;32.20;43.50
25320;DHT22;13256;49.012;8.610;2023-06-14T14:44:11;31.80;43.30
25320;DHT22;13256;49.012;8.610;2023-06-14T14:46:43;31.70;44.00
25320;DHT22;13256;49.012;8.610;2023-06-14T14:49:12;31.80;46.60
25320;DHT22;13256;49.012;8.610;2023-06-14T14:51:39;31.90;46.30
25320;DHT22;13256;49.012;8.610;2023-06-14T14:54:07;32.00;45.70
25320;DHT22;13256;49.012;8.610;2023-06-14T14:56:34;31.80;45.90
25320;DHT22;13256;49.012;8.610;2023-06-14T14:59:02;31.70;47.80
25320;DHT22;13256;49.012;8.610;2023-06-14T15:01:29;31.80;47.20
25320;DHT22;13256;49.012;8.610;2023-06-14T15:04:01;31.90;45.10
25320;DHT22;13256;49.012;8.610;2023-06-14T15:06:28;31.90;46.70
25320;DHT22;13256;49.012;8.610;2023-06-14T15:09:00;31.60;45.20
25320;DHT22;13256;49.012;8.610;2023-06-14T15:11:27;31.30;45.70
25320;DHT22;13256;49.012;8.610;2023-06-14T15:13:54;30.60;45.80
25320;DHT22;13256;49.012;8.610;2023-06-14T15:16:21;30.60;46.70
25320;DHT22;13256;49.012;8.610;2023-06-14T15:18:49;30.50;45.80
25320;DHT22;13256;49.012;8.610;2023-06-14T15:21:16;30.50;46.90
25320;DHT22;13256;49.012;8.610;2023-06-14T15:23:50;30.50;46.60
25320;DHT22;13256;49.012;8.610;2023-06-14T15:26:31;30.60;46.20
25320;DHT22;13256;49.012;8.610;2023-06-14T15:29:12;30.40;46.90
25320;DHT22;13256;49.012;8.610;2023-06-14T15:31:40;30.30;47.60
25320;DHT22;13256;49.012;8.610;2023-06-14T15:34:14;30.20;46.80
25320;DHT22;13256;49.012;8.610;2023-06-14T15:36:41;30.10;48.50
25320;DHT22;13256;49.012;8.610;2023-06-14T15:39:11;29.90;49.10
25320;DHT22;13256;49.012;8.610;2023-06-14T15:41:37;29.70;49.60
25320;DHT22;13256;49.012;8.610;2023-06-14T15:44:04;29.70;48.80
25320;DHT22;13256;49.012;8.610;2023-06-14T15:46:31;29.60;48.20
25320;DHT22;13256;49.012;8.610;2023-06-14T15:48:58;29.40;48.70
25320;DHT22;13256;49.012;8.610;2023-06-14T15:51:34;29.20;48.50
25320;DHT22;13256;49.012;8.610;2023-06-14T15:54:01;28.80;49.10
25320;DHT22;13256;49.012;8.610;2023-06-14T15:56:30;28.80;49.80
25320;DHT22;13256;49.012;8.610;2023-06-14T15:58:56;28.80;49.90
25320;DHT22;13256;49.012;8.610;2023-06-14T16:01:39;28.90;50.00
25320;DHT22;13256;49.012;8.610;2023-06-14T16:04:06;28.90;49.50
25320;DHT22;13256;49.012;8.610;2023-06-14T16:06:33;28.80;49.30
25320;DHT22;13256;49.012;8.610;2023-06-14T16:09:00;28.80;49.50
25320;DHT22;13256;49.012;8.610;2023-06-14T16:11:37;28.70;49.80
25320;DHT22;13256;49.012;8.610;2023-06-14T16:14:13;28.70;49.20
25320;DHT22;13256;49.012;8.610;2023-06-14T16:17:06;28.60;50.20
25320;DHT22;13256;49.012;8.610;2023-06-14T16:19:36;28.60;50.20
25320;DHT22;13256;49.012;8.610;2023-06-14T16:22:05;28.50;50.30
25320;DHT22;13256;49.012;8.610;2023-06-14T16:24:34;28.40;50.50
25320;DHT22;13256;49.012;8.610;2023-06-14T16:27:01;28.50;51.10
25320;DHT22;13256;49.012;8.610;2023-06-14T16:29:28;28.30;52.00
25320;DHT22;13256;49.012;8.610;2023-06-14T16:31:55;28.20;52.50
25320;DHT22;13256;49.012;8.610;2023-06-14T16:34:35;28.10;51.30
25320;DHT22;13256;49.012;8.610;2023-06-14T16:37:05;28.00;51.20
25320;DHT22;13256;49.012;8.610;2023-06-14T16:39:34;27.90;50.40
25320;DHT22;13256;49.012;8.610;2023-06-14T16:42:04;27.80;52.30
25320;DHT22;13256;49.012;8.610;2023-06-14T16:44:41;27.70;52.20
25320;DHT22;13256;49.012;8.610;2023-06-14T16:47:08;27.60;50.80
25320;DHT22;13256;49.012;8.610;2023-06-14T16:49:36;27.50;51.00
25320;DHT22;13256;49.012;8.610;2023-06-14T16:52:08;27.40;51.90
25320;DHT22;13256;49.012;8.610;2023-06-14T16:54:35;27.30;52.20
25320;DHT22;13256;49.012;8.610;2023-06-14T16:57:02;27.20;52.40
25320;DHT22;13256;49.012;8.610;2023-06-14T17:05:14;26.70;53.50
25320;DHT22;13256;49.012;8.610;2023-06-14T17:07:43;26.60;54.10
25320;DHT22;13256;49.012;8.610;2023-06-14T17:10:11;26.50;54.70
25320;DHT22;13256;49.012;8.610;2023-06-14T17:12:38;26.50;54.70
25320;DHT22;13256;49.012;8.610;2023-06-14T17:15:15;26.50;54.70
25320;DHT22;13256;49.012;8.610;2023-06-14T17:17:43;26.40;55.00
25320;DHT22;13256;49.012;8.610;2023-06-14T17:20:12;26.30;54.90
25320;DHT22;13256;49.012;8.610;2023-06-14T17:22:45;26.30;56.20
25320;DHT22;13256;49.012;8.610;2023-06-14T17:25:14;26.10;57.50
25320;DHT22;13256;49.012;8.610;2023-06-14T17:27:42;26.00;57.60
25320;DHT22;13256;49.012;8.610;2023-06-14T17:30:09;25.90;56.30
25320;DHT22;13256;49.012;8.610;2023-06-14T17:32:39;25.80;56.70
25320;DHT22;13256;49.012;8.610;2023-06-14T17:35:11;25.70;57.40
25320;DHT22;13256;49.012;8.610;2023-06-14T17:37:43;25.60;57.00
25320;DHT22;13256;49.012;8.610;2023-06-14T17:40:15;25.50;57.30
25320;DHT22;13256;49.012;8.610;2023-06-14T17:42:43;25.50;57.80
25320;DHT22;13256;49.012;8.610;2023-06-14T17:45:12;25.40;59.00
25320;DHT22;13256;49.012;8.610;2023-06-14T17:47:44;25.40;58.10
25320;DHT22;13256;49.012;8.610;2023-06-14T17:50:27;25.30;58.60
25320;DHT22;13256;49.012;8.610;2023-06-14T17:53:08;25.30;58.20
25320;DHT22;13256;49.012;8.610;2023-06-14T17:55:36;25.30;58.10
25320;DHT22;13256;49.012;8.610;2023-06-14T17:58:05;25.30;58.60
25320;DHT22;13256;49.012;8.610;2023-06-14T18:00:32;25.20;58.80
25320;DHT22;13256;49.012;8.610;2023-06-14T18:02:59;25.20;59.00
25320;DHT22;13256;49.012;8.610;2023-06-14T18:05:30;25.20;60.00
25320;DHT22;13256;49.012;8.610;2023-06-14T18:07:57;25.20;60.60
25320;DHT22;13256;49.012;8.610;2023-06-14T18:10:25;25.10;59.60
25320;DHT22;13256;49.012;8.610;2023-06-14T18:12:53;25.10;60.30
25320;DHT22;13256;49.012;8.610;2023-06-14T18:15:20;25.00;60.70
25320;DHT22;13256;49.012;8.610;2023-06-14T18:17:49;25.00;61.00
25320;DHT22;13256;49.012;8.610;2023-06-14T18:20:22;24.90;62.10
25320;DHT22;13256;49.012;8.610;2023-06-14T18:22:55;24.80;60.30
25320;DHT22;13256;49.012;8.610;2023-06-14T18:25:22;24.70;60.10
25320;DHT22;13256;49.012;8.610;2023-06-14T18:27:49;24.60;60.30
25320;DHT22;13256;49.012;8.610;2023-06-14T18:30:18;24.60;60.70
25320;DHT22;13256;49.012;8.610;2023-06-14T18:32:51;24.50;60.50
25320;DHT22;13256;49.012;8.610;2023-06-14T18:35:21;24.40;60.60
25320;DHT22;13256;49.012;8.610;2023-06-14T18:37:51;24.30;61.30
25320;DHT22;13256;49.012;8.610;2023-06-14T18:40:18;24.20;60.50
25320;DHT22;13256;49.012;8.610;2023-06-14T18:42:45;24.20;60.40
25320;DHT22;13256;49.012;8.610;2023-06-14T18:45:12;24.10;60.50
25320;DHT22;13256;49.012;8.610;2023-06-14T18:47:41;24.00;60.50
25320;DHT22;13256;49.012;8.610;2023-06-14T18:50:09;24.00;60.50
25320;DHT22;13256;49.012;8.610;2023-06-14T18:53:07;23.90;60.80
25320;DHT22;13256;49.012;8.610;2023-06-14T18:55:34;23.70;61.40
25320;DHT22;13256;49.012;8.610;2023-06-14T18:58:01;23.70;62.40
25320;DHT22;13256;49.012;8.610;2023-06-14T19:00:36;23.60;62.40
25320;DHT22;13256;49.012;8.610;2023-06-14T19:03:03;23.60;62.60
25320;DHT22;13256;49.012;8.610;2023-06-14T19:05:38;23.50;63.80
25320;DHT22;13256;49.012;8.610;2023-06-14T19:08:08;23.50;64.40
25320;DHT22;13256;49.012;8.610;2023-06-14T19:10:37;23.40;65.10
25320;DHT22;13256;49.012;8.610;2023-06-14T19:13:05;23.30;65.90
25320;DHT22;13256;49.012;8.610;2023-06-14T19:15:47;23.30;66.50
25320;DHT22;13256;49.012;8.610;2023-06-14T19:18:21;23.20;67.30
25320;DHT22;13256;49.012;8.610;2023-06-14T19:20:51;23.10;67.90
25320;DHT22;13256;49.012;8.610;2023-06-14T19:23:20;23.00;68.50
25320;DHT22;13256;49.012;8.610;2023-06-14T19:25:52;22.90;68.70
25320;DHT22;13256;49.012;8.610;2023-06-14T19:28:28;22.80;69.20
25320;DHT22;13256;49.012;8.610;2023-06-14T19:36:53;22.50;70.50
25320;DHT22;13256;49.012;8.610;2023-06-14T19:39:27;22.40;70.70